sensor_id;sensor_type;location;lat;lon;timestamp;temperature;humidity
22360;DHT22;11347;52.030;4.690;2022-09-12T00:01:18;22.20;59.20
22360;DHT22;11347;52.030;4.690;2022-09-12T00:03:44;22.20;59.20
22360;DHT22;11347;52.030;4.690;2022-09-12T00:06:14;22.20;59.20
22360;DHT22;11347;52.030;4.690;2022-09-12T00:08:40;22.20;59.20
22360;DHT22;11347;52.030;4.690;2022-09-12T00:11:08;22.20;59.20
22360;DHT22;11347;52.030;4.690;2022-09-12T00:13:35;22.20;59.50
22360;DHT22;11347;52.030;4.690;2022-09-12T00:16:01;22.10;59.50
22360;DHT22;11347;52.030;4.690;2022-09-12T00:18:27;22.20;59.50
22360;DHT22;11347;52.030;4.690;2022-09-12T00:20:52;22.20;59.40
22360;DHT22;11347;52.030;4.690;2022-09-12T00:23:18;22.10;59.30
22360;DHT22;11347;52.030;4.690;2022-09-12T00:25:46;22.20;59.50
22360;DHT22;11347;52.030;4.690;2022-09-12T00:28:13;22.10;59.50
22360;DHT22;11347;52.030;4.690;2022-09-12T00:30:43;22.10;59.50
22360;DHT22;11347;52.030;4.690;2022-09-12T00:33:10;22.10;60.20
22360;DHT22;11347;52.030;4.690;2022-09-12T00:35:48;22.10;59.70
22360;DHT22;11347;52.030;4.690;2022-09-12T00:38:15;22.10;59.80
22360;DHT22;11347;52.030;4.690;2022-09-12T00:40:41;22.10;59.80
22360;DHT22;11347;52.030;4.690;2022-09-12T00:43:34;22.10;59.90
22360;DHT22;11347;52.030;4.690;2022-09-12T00:48:53;22.10;60.00
22360;DHT22;11347;52.030;4.690;2022-09-12T00:51:19;22.10;60.00
22360;DHT22;11347;52.030;4.690;2022-09-12T00:53:47;22.10;60.00
22360;DHT22;11347;52.030;4.690;2022-09-12T00:56:15;22.10;60.00
22360;DHT22;11347;52.030;4.690;2022-09-12T00:58:57;22.10;60.00
22360;DHT22;11347;52.030;4.690;2022-09-12T01:01:25;22.10;60.00
22360;DHT22;11347;52.030;4.690;2022-09-12T01:03:51;22.10;60.10
22360;DHT22;11347;52.030;4.690;2022-09-12T01:06:29;22.10;60.10
22360;DHT22;11347;52.030;4.690;2022-09-12T01:08:57;22.10;60.10
22360;DHT22;11347;52.030;4.690;2022-09-12T01:11:24;22.00;60.10
22360;DHT22;11347;52.030;4.690;2022-09-12T01:13:49;22.10;60.20
22360;DHT22;11347;52.030;4.690;2022-09-12T01:16:15;22.00;60.60
22360;DHT22;11347;52.030;4.690;2022-09-12T01:18:54;22.10;60.30
22360;DHT22;11347;52.030;4.690;2022-09-12T01:24:31;22.00;60.40
22360;DHT22;11347;52.030;4.690;2022-09-12T01:38:03;22.00;60.90
22360;DHT22;11347;52.030;4.690;2022-09-12T01:40:46;22.00;60.90
22360;DHT22;11347;52.030;4.690;2022-09-12T01:48:36;22.00;61.00
22360;DHT22;11347;52.030;4.690;2022-09-12T01:51:12;22.00;61.00
22360;DHT22;11347;52.030;4.690;2022-09-12T01:53:43;22.00;60.90
22360;DHT22;11347;52.030;4.690;2022-09-12T01:56:26;22.00;60.90
22360;DHT22;11347;52.030;4.690;2022-09-12T01:59:04;22.00;60.90
22360;DHT22;11347;52.030;4.690;2022-09-12T02:01:34;22.00;60.90
22360;DHT22;11347;52.030;4.690;2022-09-12T02:04:14;22.00;60.90
22360;DHT22;11347;52.030;4.690;2022-09-12T02:06:51;22.00;60.80
22360;DHT22;11347;52.030;4.690;2022-09-12T02:09:47;22.00;60.60
22360;DHT22;11347;52.030;4.690;2022-09-12T02:12:12;22.00;60.50
22360;DHT22;11347;52.030;4.690;2022-09-12T02:14:44;22.00;60.50
22360;DHT22;11347;52.030;4.690;2022-09-12T02:17:14;21.90;60.50
22360;DHT22;11347;52.030;4.690;2022-09-12T02:19:48;22.00;60.80
22360;DHT22;11347;52.030;4.690;2022-09-12T02:22:19;21.90;60.90
22360;DHT22;11347;52.030;4.690;2022-09-12T02:24:49;22.00;60.90
22360;DHT22;11347;52.030;4.690;2022-09-12T02:27:35;22.00;60.80
22360;DHT22;11347;52.030;4.690;2022-09-12T02:30:04;22.00;60.60
22360;DHT22;11347;52.030;4.690;2022-09-12T02:32:40;22.00;60.60
22360;DHT22;11347;52.030;4.690;2022-09-12T02:35:13;22.00;61.00
22360;DHT22;11347;52.030;4.690;2022-09-12T02:40:16;22.00;60.40
22360;DHT22;11347;52.030;4.690;2022-09-12T02:42:42;22.00;60.30
22360;DHT22;11347;52.030;4.690;2022-09-12T02:45:08;22.00;60.20
22360;DHT22;11347;52.030;4.690;2022-09-12T02:50:20;22.00;60.30
22360;DHT22;11347;52.030;4.690;2022-09-12T02:52:46;22.00;60.30
22360;DHT22;11347;52.030;4.690;2022-09-12T02:55:13;22.00;60.30
22360;DHT22;11347;52.030;4.690;2022-09-12T02:57:39;22.00;60.30
22360;DHT22;11347;52.030;4.690;2022-09-12T03:00:05;22.00;60.30
22360;DHT22;11347;52.030;4.690;2022-09-12T03:02:44;22.00;60.20
22360;DHT22;11347;52.030;4.690;2022-09-12T03:05:31;22.00;60.20
22360;DHT22;11347;52.030;4.690;2022-09-12T03:18:22;22.00;60.20
22360;DHT22;11347;52.030;4.690;2022-09-12T03:23:33;21.90;60.00
22360;DHT22;11347;52.030;4.690;2022-09-12T03:26:16;21.90;60.00
22360;DHT22;11347;52.030;4.690;2022-09-12T03:28:45;22.00;60.10
22360;DHT22;11347;52.030;4.690;2022-09-12T03:31:14;22.00;60.00
22360;DHT22;11347;52.030;4.690;2022-09-12T03:33:40;22.00;60.00
22360;DHT22;11347;52.030;4.690;2022-09-12T03:36:16;22.00;59.90
22360;DHT22;11347;52.030;4.690;2022-09-12T03:38:44;21.90;59.60
22360;DHT22;11347;52.030;4.690;2022-09-12T03:41:09;21.90;59.70
22360;DHT22;11347;52.030;4.690;2022-09-12T03:43:35;21.90;59.80
22360;DHT22;11347;52.030;4.690;2022-09-12T03:46:00;21.90;59.90
22360;DHT22;11347;52.030;4.690;2022-09-12T03:48:26;21.90;59.90
22360;DHT22;11347;52.030;4.690;2022-09-12T03:50:52;21.90;59.80
22360;DHT22;11347;52.030;4.690;2022-09-12T03:53:17;21.90;59.80
22360;DHT22;11347;52.030;4.690;2022-09-12T03:55:43;21.90;59.80
22360;DHT22;11347;52.030;4.690;2022-09-12T03:58:09;21.90;59.80
22360;DHT22;11347;52.030;4.690;2022-09-12T04:00:34;21.90;59.80
22360;DHT22;11347;52.030;4.690;2022-09-12T04:03:00;21.80;59.70
22360;DHT22;11347;52.030;4.690;2022-09-12T04:05:25;21.90;59.90
22360;DHT22;11347;52.030;4.690;2022-09-12T04:07:51;21.90;60.00
22360;DHT22;11347;52.030;4.690;2022-09-12T04:10:17;21.80;60.00
22360;DHT22;11347;52.030;4.690;2022-09-12T04:12:43;21.90;60.00
22360;DHT22;11347;52.030;4.690;2022-09-12T04:15:09;21.80;60.00
22360;DHT22;11347;52.030;4.690;2022-09-12T04:17:34;21.80;60.00
22360;DHT22;11347;52.030;4.690;2022-09-12T04:20:00;21.90;60.00
22360;DHT22;11347;52.030;4.690;2022-09-12T04:22:26;21.90;60.00
22360;DHT22;11347;52.030;4.690;2022-09-12T04:24:52;21.90;60.10
22360;DHT22;11347;52.030;4.690;2022-09-12T04:27:17;21.90;60.10
22360;DHT22;11347;52.030;4.690;2022-09-12T04:29:43;21.80;60.00
22360;DHT22;11347;52.030;4.690;2022-09-12T04:32:08;21.80;60.00
22360;DHT22;11347;52.030;4.690;2022-09-12T04:34:34;21.80;60.00
22360;DHT22;11347;52.030;4.690;2022-09-12T04:37:00;21.80;60.00
22360;DHT22;11347;52.030;4.690;2022-09-12T04:39:25;21.80;60.00
22360;DHT22;11347;52.030;4.690;2022-09-12T04:41:51;21.80;60.00
22360;DHT22;11347;52.030;4.690;2022-09-12T04:44:16;21.80;60.00
22360;DHT22;11347;52.030;4.690;2022-09-12T04:46:45;21.80;60.00
22360;DHT22;11347;52.030;4.690;2022-09-12T04:49:12;21.80;60.10
22360;DHT22;11347;52.030;4.690;2022-09-12T04:51:40;21.80;60.60
22360;DHT22;11347;52.030;4.690;2022-09-12T04:54:12;21.80;60.20
22360;DHT22;11347;52.030;4.690;2022-09-12T04:56:40;21.80;60.20
22360;DHT22;11347;52.030;4.690;2022-09-12T04:59:07;21.80;60.80
22360;DHT22;11347;52.030;4.690;2022-09-12T05:01:34;21.80;60.40
22360;DHT22;11347;52.030;4.690;2022-09-12T05:04:00;21.80;60.40
22360;DHT22;11347;52.030;4.690;2022-09-12T05:06:31;21.80;60.30
22360;DHT22;11347;52.030;4.690;2022-09-12T05:08:57;21.80;60.20
22360;DHT22;11347;52.030;4.690;2022-09-12T05:11:25;21.80;60.30
22360;DHT22;11347;52.030;4.690;2022-09-12T05:13:51;21.80;60.20
22360;DHT22;11347;52.030;4.690;2022-09-12T05:16:17;21.80;60.20
22360;DHT22;11347;52.030;4.690;2022-09-12T05:18:44;21.80;60.20
22360;DHT22;11347;52.030;4.690;2022-09-12T05:21:13;21.80;60.20
22360;DHT22;11347;52.030;4.690;2022-09-12T05:23:39;21.80;60.30
22360;DHT22;11347;52.030;4.690;2022-09-12T05:26:06;21.80;60.50
22360;DHT22;11347;52.030;4.690;2022-09-12T05:28:34;21.80;60.50
22360;DHT22;11347;52.030;4.690;2022-09-12T05:31:11;21.70;60.50
22360;DHT22;11347;52.030;4.690;2022-09-12T05:33:39;21.80;60.50
22360;DHT22;11347;52.030;4.690;2022-09-12T05:36:06;21.80;60.80
22360;DHT22;11347;52.030;4.690;2022-09-12T05:38:35;21.70;61.20
22360;DHT22;11347;52.030;4.690;2022-09-12T05:41:06;21.70;60.70
22360;DHT22;11347;52.030;4.690;2022-09-12T05:43:33;21.70;60.70
22360;DHT22;11347;52.030;4.690;2022-09-12T05:46:00;21.70;60.70
22360;DHT22;11347;52.030;4.690;2022-09-12T05:48:26;21.70;60.70
22360;DHT22;11347;52.030;4.690;2022-09-12T05:50:59;21.70;61.20
22360;DHT22;11347;52.030;4.690;2022-09-12T05:53:27;21.70;60.70
22360;DHT22;11347;52.030;4.690;2022-09-12T05:56:02;21.70;60.70
22360;DHT22;11347;52.030;4.690;2022-09-12T05:58:27;21.70;60.70
22360;DHT22;11347;52.030;4.690;2022-09-12T06:00:53;21.70;60.70
22360;DHT22;11347;52.030;4.690;2022-09-12T06:03:20;21.70;60.70
22360;DHT22;11347;52.030;4.690;2022-09-12T06:05:46;21.70;60.70
22360;DHT22;11347;52.030;4.690;2022-09-12T06:08:11;21.70;60.70
22360;DHT22;11347;52.030;4.690;2022-09-12T06:10:37;21.70;60.70
22360;DHT22;11347;52.030;4.690;2022-09-12T06:13:02;21.70;60.70
22360;DHT22;11347;52.030;4.690;2022-09-12T06:15:28;21.70;60.70
22360;DHT22;11347;52.030;4.690;2022-09-12T06:17:54;21.70;60.70
22360;DHT22;11347;52.030;4.690;2022-09-12T06:20:19;21.70;60.70
22360;DHT22;11347;52.030;4.690;2022-09-12T06:22:45;21.80;60.80
22360;DHT22;11347;52.030;4.690;2022-09-12T06:25:12;21.80;60.80
22360;DHT22;11347;52.030;4.690;2022-09-12T06:27:38;21.80;60.80
22360;DHT22;11347;52.030;4.690;2022-09-12T06:30:05;21.80;60.80
22360;DHT22;11347;52.030;4.690;2022-09-12T06:32:31;21.90;60.90
22360;DHT22;11347;52.030;4.690;2022-09-12T06:34:57;21.90;60.90
22360;DHT22;11347;52.030;4.690;2022-09-12T06:37:22;21.90;60.90
22360;DHT22;11347;52.030;4.690;2022-09-12T06:39:48;21.90;60.80
22360;DHT22;11347;52.030;4.690;2022-09-12T06:42:13;21.90;60.70
22360;DHT22;11347;52.030;4.690;2022-09-12T06:44:39;21.90;60.70
22360;DHT22;11347;52.030;4.690;2022-09-12T06:47:05;22.00;60.60
22360;DHT22;11347;52.030;4.690;2022-09-12T06:49:31;22.00;60.50
22360;DHT22;11347;52.030;4.690;2022-09-12T06:51:58;22.00;60.50
22360;DHT22;11347;52.030;4.690;2022-09-12T06:54:23;22.00;60.40
22360;DHT22;11347;52.030;4.690;2022-09-12T06:56:50;22.00;60.50
22360;DHT22;11347;52.030;4.690;2022-09-12T06:59:16;22.10;60.50
22360;DHT22;11347;52.030;4.690;2022-09-12T07:01:42;22.00;60.20
22360;DHT22;11347;52.030;4.690;2022-09-12T07:04:07;22.10;60.20
22360;DHT22;11347;52.030;4.690;2022-09-12T07:06:38;22.10;60.10
22360;DHT22;11347;52.030;4.690;2022-09-12T07:09:07;22.10;60.10
22360;DHT22;11347;52.030;4.690;2022-09-12T07:11:36;22.10;60.00
22360;DHT22;11347;52.030;4.690;2022-09-12T07:14:03;22.10;59.90
22360;DHT22;11347;52.030;4.690;2022-09-12T07:16:30;22.10;59.60
22360;DHT22;11347;52.030;4.690;2022-09-12T07:18:58;22.10;59.40
22360;DHT22;11347;52.030;4.690;2022-09-12T07:21:24;22.10;59.30
22360;DHT22;11347;52.030;4.690;2022-09-12T07:23:49;22.20;59.30
22360;DHT22;11347;52.030;4.690;2022-09-12T07:26:16;22.20;59.20
22360;DHT22;11347;52.030;4.690;2022-09-12T07:28:42;22.20;59.00
22360;DHT22;11347;52.030;4.690;2022-09-12T07:31:13;22.20;59.00
22360;DHT22;11347;52.030;4.690;2022-09-12T07:33:39;22.20;59.00
22360;DHT22;11347;52.030;4.690;2022-09-12T07:36:07;22.20;58.90
22360;DHT22;11347;52.030;4.690;2022-09-12T07:38:39;22.20;58.80
22360;DHT22;11347;52.030;4.690;2022-09-12T07:41:14;22.20;58.70
22360;DHT22;11347;52.030;4.690;2022-09-12T07:43:41;22.20;58.60
22360;DHT22;11347;52.030;4.690;2022-09-12T07:46:07;22.20;58.50
22360;DHT22;11347;52.030;4.690;2022-09-12T07:48:33;22.20;58.50
22360;DHT22;11347;52.030;4.690;2022-09-12T07:51:00;22.30;58.50
22360;DHT22;11347;52.030;4.690;2022-09-12T07:53:30;22.30;58.40
22360;DHT22;11347;52.030;4.690;2022-09-12T07:55:56;22.30;58.30
22360;DHT22;11347;52.030;4.690;2022-09-12T07:58:22;22.30;58.30
22360;DHT22;11347;52.030;4.690;2022-09-12T08:00:48;22.30;58.20
22360;DHT22;11347;52.030;4.690;2022-09-12T08:03:14;22.30;58.20
22360;DHT22;11347;52.030;4.690;2022-09-12T08:05:40;22.40;58.20
22360;DHT22;11347;52.030;4.690;2022-09-12T08:08:05;22.40;58.20
22360;DHT22;11347;52.030;4.690;2022-09-12T08:10:31;22.40;58.80
22360;DHT22;11347;52.030;4.690;2022-09-12T08:12:57;22.40;58.10
22360;DHT22;11347;52.030;4.690;2022-09-12T08:15:23;22.40;58.20
22360;DHT22;11347;52.030;4.690;2022-09-12T08:17:49;22.40;58.20
22360;DHT22;11347;52.030;4.690;2022-09-12T08:20:15;22.50;58.20
22360;DHT22;11347;52.030;4.690;2022-09-12T08:22:42;22.50;58.20
22360;DHT22;11347;52.030;4.690;2022-09-12T08:25:09;22.50;58.00
22360;DHT22;11347;52.030;4.690;2022-09-12T08:27:34;22.60;58.10
22360;DHT22;11347;52.030;4.690;2022-09-12T08:30:00;22.50;57.90
22360;DHT22;11347;52.030;4.690;2022-09-12T08:32:25;22.50;57.90
22360;DHT22;11347;52.030;4.690;2022-09-12T08:34:51;22.60;58.00
22360;DHT22;11347;52.030;4.690;2022-09-12T08:37:17;22.60;58.10
22360;DHT22;11347;52.030;4.690;2022-09-12T08:39:42;22.60;58.10
22360;DHT22;11347;52.030;4.690;2022-09-12T08:42:09;22.60;58.00
22360;DHT22;11347;52.030;4.690;2022-09-12T08:44:49;22.60;58.00
22360;DHT22;11347;52.030;4.690;2022-09-12T08:55:33;22.70;57.90
22360;DHT22;11347;52.030;4.690;2022-09-12T08:58:19;22.70;57.80
22360;DHT22;11347;52.030;4.690;2022-09-12T09:00:58;22.70;57.90
22360;DHT22;11347;52.030;4.690;2022-09-12T09:09:14;22.80;57.90
22360;DHT22;11347;52.030;4.690;2022-09-12T09:11:52;22.80;57.90
22360;DHT22;11347;52.030;4.690;2022-09-12T09:14:38;22.80;57.90
22360;DHT22;11347;52.030;4.690;2022-09-12T09:17:25;22.80;57.80
22360;DHT22;11347;52.030;4.690;2022-09-12T09:22:49;22.90;58.00
22360;DHT22;11347;52.030;4.690;2022-09-12T09:25:21;22.90;58.00
22360;DHT22;11347;52.030;4.690;2022-09-12T09:28:03;22.90;58.00
22360;DHT22;11347;52.030;4.690;2022-09-12T09:30:33;22.90;57.90
22360;DHT22;11347;52.030;4.690;2022-09-12T09:33:02;23.00;58.00
22360;DHT22;11347;52.030;4.690;2022-09-12T09:35:44;23.00;57.90
22360;DHT22;11347;52.030;4.690;2022-09-12T09:41:00;23.10;57.80
22360;DHT22;11347;52.030;4.690;2022-09-12T09:43:29;23.10;57.70
22360;DHT22;11347;52.030;4.690;2022-09-12T09:45:56;23.10;57.50
22360;DHT22;11347;52.030;4.690;2022-09-12T09:48:47;23.10;57.50
22360;DHT22;11347;52.030;4.690;2022-09-12T09:51:16;23.10;57.40
22360;DHT22;11347;52.030;4.690;2022-09-12T09:53:53;23.10;57.40
22360;DHT22;11347;52.030;4.690;2022-09-12T09:56:29;23.20;57.30
22360;DHT22;11347;52.030;4.690;2022-09-12T09:59:10;23.20;57.20
22360;DHT22;11347;52.030;4.690;2022-09-12T10:01:37;23.20;57.20
22360;DHT22;11347;52.030;4.690;2022-09-12T10:04:25;23.20;57.90
22360;DHT22;11347;52.030;4.690;2022-09-12T10:07:02;23.20;57.20
22360;DHT22;11347;52.030;4.690;2022-09-12T10:09:29;23.20;56.90
22360;DHT22;11347;52.030;4.690;2022-09-12T10:11:58;23.20;56.80
22360;DHT22;11347;52.030;4.690;2022-09-12T10:17:22;23.30;56.90
22360;DHT22;11347;52.030;4.690;2022-09-12T10:19:48;23.30;56.80
22360;DHT22;11347;52.030;4.690;2022-09-12T10:22:17;23.40;56.90
22360;DHT22;11347;52.030;4.690;2022-09-12T10:24:48;23.30;57.00
22360;DHT22;11347;52.030;4.690;2022-09-12T10:27:17;23.40;56.80
22360;DHT22;11347;52.030;4.690;2022-09-12T10:29:51;23.40;56.60
22360;DHT22;11347;52.030;4.690;2022-09-12T10:32:28;23.40;56.50
22360;DHT22;11347;52.030;4.690;2022-09-12T10:34:59;23.40;56.20
22360;DHT22;11347;52.030;4.690;2022-09-12T10:37:33;23.40;56.30
22360;DHT22;11347;52.030;4.690;2022-09-12T10:40:00;23.40;56.10
22360;DHT22;11347;52.030;4.690;2022-09-12T10:42:50;23.40;55.80
22360;DHT22;11347;52.030;4.690;2022-09-12T10:45:25;23.40;55.90
22360;DHT22;11347;52.030;4.690;2022-09-12T10:47:53;23.50;55.80
22360;DHT22;11347;52.030;4.690;2022-09-12T10:50:24;23.50;55.80
22360;DHT22;11347;52.030;4.690;2022-09-12T10:52:54;23.50;55.70
22360;DHT22;11347;52.030;4.690;2022-09-12T10:55:36;23.50;55.60
22360;DHT22;11347;52.030;4.690;2022-09-12T11:00:54;23.60;55.60
22360;DHT22;11347;52.030;4.690;2022-09-12T11:03:28;23.60;55.40
22360;DHT22;11347;52.030;4.690;2022-09-12T11:06:00;23.60;55.10
22360;DHT22;11347;52.030;4.690;2022-09-12T11:09:05;23.60;55.10
22360;DHT22;11347;52.030;4.690;2022-09-12T11:12:01;23.60;54.80
22360;DHT22;11347;52.030;4.690;2022-09-12T11:17:33;23.70;54.80
22360;DHT22;11347;52.030;4.690;2022-09-12T11:35:51;23.80;54.00
22360;DHT22;11347;52.030;4.690;2022-09-12T11:41:14;23.80;53.90
22360;DHT22;11347;52.030;4.690;2022-09-12T11:44:11;23.80;54.00
22360;DHT22;11347;52.030;4.690;2022-09-12T11:46:41;23.80;53.90
22360;DHT22;11347;52.030;4.690;2022-09-12T11:51:55;23.90;53.90
22360;DHT22;11347;52.030;4.690;2022-09-12T11:57:51;23.90;53.60
22360;DHT22;11347;52.030;4.690;2022-09-12T11:59:51;23.90;53.70
22360;DHT22;11347;52.030;4.690;2022-09-12T12:02:26;23.90;53.40
22360;DHT22;11347;52.030;4.690;2022-09-12T12:07:58;24.00;53.20
22360;DHT22;11347;52.030;4.690;2022-09-12T12:10:37;23.90;53.10
22360;DHT22;11347;52.030;4.690;2022-09-12T12:13:07;24.00;53.10
22360;DHT22;11347;52.030;4.690;2022-09-12T12:15:35;24.00;53.30
22360;DHT22;11347;52.030;4.690;2022-09-12T12:18:23;24.00;53.10
22360;DHT22;11347;52.030;4.690;2022-09-12T12:20:50;24.00;52.70
22360;DHT22;11347;52.030;4.690;2022-09-12T12:23:26;24.00;52.70
22360;DHT22;11347;52.030;4.690;2022-09-12T12:25:58;24.10;52.80
22360;DHT22;11347;52.030;4.690;2022-09-12T12:31:15;24.10;52.70
22360;DHT22;11347;52.030;4.690;2022-09-12T12:36:30;24.10;52.70
22360;DHT22;11347;52.030;4.690;2022-09-12T12:38:55;24.10;52.70
22360;DHT22;11347;52.030;4.690;2022-09-12T12:43:48;24.10;52.70
22360;DHT22;11347;52.030;4.690;2022-09-12T12:46:15;24.20;52.80
22360;DHT22;11347;52.030;4.690;2022-09-12T12:53:57;24.20;52.80
22360;DHT22;11347;52.030;4.690;2022-09-12T12:59:05;24.20;52.20
22360;DHT22;11347;52.030;4.690;2022-09-12T13:01:36;24.20;52.30
22360;DHT22;11347;52.030;4.690;2022-09-12T13:04:13;24.20;52.10
22360;DHT22;11347;52.030;4.690;2022-09-12T13:06:44;24.20;51.70
22360;DHT22;11347;52.030;4.690;2022-09-12T13:09:18;24.30;52.00
22360;DHT22;11347;52.030;4.690;2022-09-12T13:11:45;24.30;51.70
22360;DHT22;11347;52.030;4.690;2022-09-12T13:14:48;24.30;51.80
22360;DHT22;11347;52.030;4.690;2022-09-12T13:17:38;24.30;51.40
22360;DHT22;11347;52.030;4.690;2022-09-12T13:22:39;24.30;51.50
22360;DHT22;11347;52.030;4.690;2022-09-12T13:25:22;24.40;51.50
22360;DHT22;11347;52.030;4.690;2022-09-12T13:28:00;24.40;51.40
22360;DHT22;11347;52.030;4.690;2022-09-12T13:30:27;24.40;51.30
22360;DHT22;11347;52.030;4.690;2022-09-12T13:32:56;24.40;51.30
22360;DHT22;11347;52.030;4.690;2022-09-12T13:35:27;24.40;51.20
22360;DHT22;11347;52.030;4.690;2022-09-12T13:43:42;24.50;51.20
22360;DHT22;11347;52.030;4.690;2022-09-12T13:46:14;24.50;51.20
22360;DHT22;11347;52.030;4.690;2022-09-12T13:48:42;24.50;51.00
22360;DHT22;11347;52.030;4.690;2022-09-12T13:51:25;24.50;50.90
22360;DHT22;11347;52.030;4.690;2022-09-12T13:53:54;24.50;50.90
22360;DHT22;11347;52.030;4.690;2022-09-12T13:56:22;24.50;50.80
22360;DHT22;11347;52.030;4.690;2022-09-12T13:58:59;24.50;50.80
22360;DHT22;11347;52.030;4.690;2022-09-12T14:01:39;24.50;50.70
22360;DHT22;11347;52.030;4.690;2022-09-12T14:04:22;24.50;50.50
22360;DHT22;11347;52.030;4.690;2022-09-12T14:07:13;24.50;50.40
22360;DHT22;11347;52.030;4.690;2022-09-12T14:09:44;24.60;50.50
22360;DHT22;11347;52.030;4.690;2022-09-12T14:12:36;24.60;51.10
22360;DHT22;11347;52.030;4.690;2022-09-12T14:15:17;24.60;50.30
22360;DHT22;11347;52.030;4.690;2022-09-12T14:17:49;24.60;50.40
22360;DHT22;11347;52.030;4.690;2022-09-12T14:20:17;24.60;50.30
22360;DHT22;11347;52.030;4.690;2022-09-12T14:22:44;24.60;50.30
22360;DHT22;11347;52.030;4.690;2022-09-12T14:25:17;24.60;50.50
22360;DHT22;11347;52.030;4.690;2022-09-12T14:27:50;24.60;50.30
22360;DHT22;11347;52.030;4.690;2022-09-12T14:30:33;24.60;49.80
22360;DHT22;11347;52.030;4.690;2022-09-12T14:35:34;24.70;50.00
22360;DHT22;11347;52.030;4.690;2022-09-12T14:38:11;24.70;50.00
22360;DHT22;11347;52.030;4.690;2022-09-12T14:40:43;24.60;49.70
22360;DHT22;11347;52.030;4.690;2022-09-12T14:43:26;24.70;50.00
22360;DHT22;11347;52.030;4.690;2022-09-12T14:46:03;24.70;49.90
22360;DHT22;11347;52.030;4.690;2022-09-12T14:48:36;24.70;49.90
22360;DHT22;11347;52.030;4.690;2022-09-12T14:51:06;24.60;49.70
22360;DHT22;11347;52.030;4.690;2022-09-12T14:53:36;24.70;50.00
22360;DHT22;11347;52.030;4.690;2022-09-12T14:56:08;24.70;50.00
22360;DHT22;11347;52.030;4.690;2022-09-12T14:58:34;24.70;50.10
22360;DHT22;11347;52.030;4.690;2022-09-12T15:08:47;24.70;50.20
22360;DHT22;11347;52.030;4.690;2022-09-12T15:11:12;24.70;49.60
22360;DHT22;11347;52.030;4.690;2022-09-12T15:13:39;24.70;49.70
22360;DHT22;11347;52.030;4.690;2022-09-12T15:16:10;24.70;49.70
22360;DHT22;11347;52.030;4.690;2022-09-12T15:18:36;24.70;49.70
22360;DHT22;11347;52.030;4.690;2022-09-12T15:21:04;24.70;49.50
22360;DHT22;11347;52.030;4.690;2022-09-12T15:23:36;24.70;49.50
22360;DHT22;11347;52.030;4.690;2022-09-12T15:26:05;24.70;49.60
22360;DHT22;11347;52.030;4.690;2022-09-12T15:28:31;24.70;49.60
22360;DHT22;11347;52.030;4.690;2022-09-12T15:31:02;24.70;49.50
22360;DHT22;11347;52.030;4.690;2022-09-12T15:33:29;24.70;49.50
22360;DHT22;11347;52.030;4.690;2022-09-12T15:35:54;24.70;49.50
22360;DHT22;11347;52.030;4.690;2022-09-12T15:38:20;24.70;49.50
22360;DHT22;11347;52.030;4.690;2022-09-12T15:40:49;24.70;49.50
22360;DHT22;11347;52.030;4.690;2022-09-12T15:43:18;24.70;49.30
22360;DHT22;11347;52.030;4.690;2022-09-12T15:45:45;24.70;49.40
22360;DHT22;11347;52.030;4.690;2022-09-12T15:48:11;24.70;49.40
22360;DHT22;11347;52.030;4.690;2022-09-12T15:50:39;24.70;49.30
22360;DHT22;11347;52.030;4.690;2022-09-12T15:53:04;24.70;49.40
22360;DHT22;11347;52.030;4.690;2022-09-12T15:55:31;24.70;49.30
22360;DHT22;11347;52.030;4.690;2022-09-12T15:57:57;24.70;49.20
22360;DHT22;11347;52.030;4.690;2022-09-12T16:00:24;24.70;49.20
22360;DHT22;11347;52.030;4.690;2022-09-12T16:02:50;24.70;49.20
22360;DHT22;11347;52.030;4.690;2022-09-12T16:05:19;24.70;49.20
22360;DHT22;11347;52.030;4.690;2022-09-12T16:07:46;24.70;49.30
22360;DHT22;11347;52.030;4.690;2022-09-12T16:10:15;24.70;49.10
22360;DHT22;11347;52.030;4.690;2022-09-12T16:12:41;24.70;49.10
22360;DHT22;11347;52.030;4.690;2022-09-12T16:15:11;24.70;49.30
22360;DHT22;11347;52.030;4.690;2022-09-12T16:17:37;24.60;49.20
22360;DHT22;11347;52.030;4.690;2022-09-12T16:20:02;24.70;49.30
22360;DHT22;11347;52.030;4.690;2022-09-12T16:22:28;24.60;49.40
22360;DHT22;11347;52.030;4.690;2022-09-12T16:24:54;24.60;49.30
22360;DHT22;11347;52.030;4.690;2022-09-12T16:27:20;24.70;49.50
22360;DHT22;11347;52.030;4.690;2022-09-12T16:29:45;24.70;49.60
22360;DHT22;11347;52.030;4.690;2022-09-12T16:32:11;24.60;49.40
22360;DHT22;11347;52.030;4.690;2022-09-12T16:34:36;24.60;49.40
22360;DHT22;11347;52.030;4.690;2022-09-12T16:37:02;24.60;49.40
22360;DHT22;11347;52.030;4.690;2022-09-12T16:39:28;24.70;49.80
22360;DHT22;11347;52.030;4.690;2022-09-12T16:41:53;24.60;49.70
22360;DHT22;11347;52.030;4.690;2022-09-12T16:44:19;24.60;49.70
22360;DHT22;11347;52.030;4.690;2022-09-12T16:46:44;24.60;49.80
22360;DHT22;11347;52.030;4.690;2022-09-12T16:49:10;24.60;49.80
22360;DHT22;11347;52.030;4.690;2022-09-12T16:51:36;24.60;49.90
22360;DHT22;11347;52.030;4.690;2022-09-12T16:54:02;24.60;49.70
22360;DHT22;11347;52.030;4.690;2022-09-12T16:56:28;24.60;49.70
22360;DHT22;11347;52.030;4.690;2022-09-12T16:58:54;24.60;49.90
22360;DHT22;11347;52.030;4.690;2022-09-12T17:01:24;24.60;49.90
22360;DHT22;11347;52.030;4.690;2022-09-12T17:03:54;24.60;49.90
22360;DHT22;11347;52.030;4.690;2022-09-12T17:06:20;24.60;50.00
22360;DHT22;11347;52.030;4.690;2022-09-12T17:08:48;24.60;50.10
22360;DHT22;11347;52.030;4.690;2022-09-12T17:11:26;24.60;50.20
22360;DHT22;11347;52.030;4.690;2022-09-12T17:13:55;24.60;50.40
22360;DHT22;11347;52.030;4.690;2022-09-12T17:16:22;24.60;50.40
22360;DHT22;11347;52.030;4.690;2022-09-12T17:18:49;24.60;50.60
22360;DHT22;11347;52.030;4.690;2022-09-12T17:21:15;24.60;50.70
22360;DHT22;11347;52.030;4.690;2022-09-12T17:23:41;24.60;50.80
22360;DHT22;11347;52.030;4.690;2022-09-12T17:26:07;24.50;50.80
22360;DHT22;11347;52.030;4.690;2022-09-12T17:28:36;24.50;50.70
22360;DHT22;11347;52.030;4.690;2022-09-12T17:31:05;24.60;51.20
22360;DHT22;11347;52.030;4.690;2022-09-12T17:33:31;24.50;51.10
22360;DHT22;11347;52.030;4.690;2022-09-12T17:36:02;24.50;51.20
22360;DHT22;11347;52.030;4.690;2022-09-12T17:38:31;24.50;51.40
22360;DHT22;11347;52.030;4.690;2022-09-12T17:41:03;24.50;51.40
22360;DHT22;11347;52.030;4.690;2022-09-12T17:43:28;24.50;51.70
22360;DHT22;11347;52.030;4.690;2022-09-12T17:45:54;24.50;51.80
22360;DHT22;11347;52.030;4.690;2022-09-12T17:48:23;24.50;51.60
22360;DHT22;11347;52.030;4.690;2022-09-12T17:50:49;24.50;51.70
22360;DHT22;11347;52.030;4.690;2022-09-12T17:53:15;24.50;51.90
22360;DHT22;11347;52.030;4.690;2022-09-12T17:55:41;24.40;51.80
22360;DHT22;11347;52.030;4.690;2022-09-12T17:58:07;24.40;51.80